Time;durP1;ratioP1;P1;durP2;ratioP2;P2;SDS_P1;SDS_P2;PMS_P1;PMS_P2;Temp;Humidity;BMP_temperature;BMP_pressure;BME280_temperature;BME280_humidity;BME280_pressure;Samples;Min_cycle;Max_cycle;Signal;HPM_P1;HPM_P2
2022/10/08 00:00:06;;;;;;;7.95;6.28;;;;;;;15.90;76.13;99756.09;338815;29;1852;-69
2022/10/08 00:00:18;;;;;;;8.57;6.45;;;;;;;15.91;75.91;99754.31;339199;29;1183;-69
2022/10/08 00:00:30;;;;;;;8.98;6.47;;;;;;;15.91;76.01;99754.31;338679;29;1383;-69
2022/10/08 00:00:44;;;;;;;10.82;6.68;;;;;;;15.91;75.86;99760.41;337633;29;1941;-69
2022/10/08 00:00:59;;;;;;;11.23;6.63;;;;;;;15.89;76.07;99759.63;338139;29;1933;-69
2022/10/08 00:01:15;;;;;;;9.77;6.50;;;;;;;15.91;75.84;99755.16;338647;29;1050;-69
2022/10/08 00:01:27;;;;;;;9.75;6.55;;;;;;;15.88;76.19;99759.75;338839;29;1040;-69
2022/10/08 00:01:39;;;;;;;9.68;6.68;;;;;;;15.87;75.95;99758.88;337705;29;1915;-69
2022/10/08 00:01:51;;;;;;;9.23;6.75;;;;;;;15.89;76.16;99758.81;338583;29;1799;-69
2022/10/08 00:02:03;;;;;;;12.02;7.65;;;;;;;15.88;76.00;99763.22;338309;29;1428;-69
2022/10/08 00:02:15;;;;;;;11.55;7.53;;;;;;;15.88;76.07;99760.59;337398;29;1208;-69
2022/10/08 00:02:28;;;;;;;10.85;6.80;;;;;;;15.87;76.03;99758.88;337438;29;1149;-68
2022/10/08 00:02:40;;;;;;;10.00;6.63;;;;;;;15.85;76.36;99762.50;337739;29;1536;-69
2022/10/08 00:02:52;;;;;;;8.38;6.47;;;;;;;15.84;76.09;99756.44;338470;29;1958;-68
2022/10/08 00:03:04;;;;;;;8.27;6.53;;;;;;;15.85;76.43;99760.72;338550;29;1795;-68
2022/10/08 00:03:18;;;;;;;8.82;6.80;;;;;;;15.85;76.08;99759.88;338194;29;1105;-68
2022/10/08 00:03:34;;;;;;;11.32;6.90;;;;;;;15.85;76.39;99763.34;338246;29;1714;-69
2022/10/08 00:03:50;;;;;;;10.32;6.85;;;;;;;15.85;76.50;99750.25;338370;29;1704;-69
2022/10/08 00:04:02;;;;;;;7.73;6.73;;;;;;;15.83;76.67;99752.09;338803;29;1699;-69
2022/10/08 00:04:14;;;;;;;9.25;6.78;;;;;;;15.83;76.26;99757.34;338770;29;766;-69
2022/10/08 00:04:26;;;;;;;10.93;6.65;;;;;;;15.85;76.21;99760.72;338644;29;1120;-69
2022/10/08 00:04:38;;;;;;;12.55;6.57;;;;;;;15.85;76.26;99755.50;337496;29;1901;-69
2022/10/08 00:04:50;;;;;;;11.30;6.50;;;;;;;15.85;76.21;99755.50;338318;29;1901;-69
2022/10/08 00:05:02;;;;;;;9.57;6.82;;;;;;;15.85;76.17;99755.50;338312;29;1149;-69
2022/10/08 00:05:14;;;;;;;9.48;6.75;;;;;;;15.85;76.07;99763.34;338703;29;1084;-69
2022/10/08 00:05:26;;;;;;;9.68;6.60;;;;;;;15.86;76.21;99753.75;338641;29;1066;-68
2022/10/08 00:05:38;;;;;;;9.00;6.38;;;;;;;15.84;76.22;99756.44;337795;29;1513;-69
2022/10/08 00:05:59;;;;;;;10.07;6.45;;;;;;;15.84;75.99;99753.81;338325;29;1870;-69
2022/10/08 00:06:14;;;;;;;9.88;6.70;;;;;;;15.82;76.21;99755.66;338345;29;1726;-69
2022/10/08 00:06:31;;;;;;;8.82;6.75;;;;;;;15.82;76.29;99750.44;340649;29;1282;-69
2022/10/08 00:06:43;;;;;;;8.55;6.95;;;;;;;15.81;76.30;99748.72;340180;29;1753;-69
2022/10/08 00:06:55;;;;;;;9.18;7.07;;;;;;;15.80;76.25;99746.19;340728;29;1035;-69
2022/10/08 00:07:06;;;;;;;9.48;6.78;;;;;;;15.77;76.46;99748.06;340811;29;1047;-69
2022/10/08 00:07:18;;;;;;;10.32;6.80;;;;;;;15.79;76.22;99755.81;340700;29;1716;-68
2022/10/08 00:07:30;;;;;;;10.65;6.60;;;;;;;15.78;76.37;99749.72;340829;28;1824;-68
2022/10/08 00:07:44;;;;;;;9.63;6.32;;;;;;;15.80;76.42;99757.53;339754;29;1582;-69
2022/10/08 00:07:56;;;;;;;7.57;6.10;;;;;;;15.81;76.40;99753.13;340095;28;1982;-69
2022/10/08 00:08:09;;;;;;;11.10;6.38;;;;;;;15.80;76.27;99747.03;339949;29;2354;-69
2022/10/08 00:08:22;;;;;;;11.75;6.60;;;;;;;15.80;76.44;99749.66;340110;29;1337;-69
2022/10/08 00:08:36;;;;;;;12.23;6.82;;;;;;;15.79;76.56;99750.56;337761;29;1847;-69
2022/10/08 00:08:51;;;;;;;13.25;7.03;;;;;;;15.78;76.42;99749.72;337845;29;2451;-69
2022/10/08 00:09:06;;;;;;;13.50;7.00;;;;;;;15.77;76.49;99747.19;338221;29;1087;-69
2022/10/08 00:09:17;;;;;;;11.48;6.90;;;;;;;15.76;76.38;99751.59;338525;29;1247;-69
2022/10/08 00:09:29;;;;;;;9.65;6.80;;;;;;;15.77;76.58;99747.19;338429;29;1402;-69
2022/10/08 00:09:41;;;;;;;9.20;6.95;;;;;;;15.77;76.52;99753.28;338199;29;1491;-69
2022/10/08 00:09:53;;;;;;;9.95;6.88;;;;;;;15.79;76.42;99745.31;338596;29;1190;-69
2022/10/08 00:10:06;;;;;;;9.55;6.60;;;;;;;15.79;76.33;99740.09;336582;29;1988;-68
2022/10/08 00:10:18;;;;;;;9.75;6.60;;;;;;;15.81;76.15;99748.72;338452;29;1613;-69
2022/10/08 00:10:31;;;;;;;10.13;6.78;;;;;;;15.82;76.20;99745.19;338325;29;1805;-68
2022/10/08 00:10:51;;;;;;;10.00;7.07;;;;;;;15.82;76.13;99744.34;338274;29;1907;-69
2022/10/08 00:11:09;;;;;;;9.13;7.10;;;;;;;15.82;76.03;99747.81;338407;29;1327;-69
2022/10/08 00:11:26;;;;;;;8.90;6.90;;;;;;;15.84;76.21;99742.50;338202;29;1216;-69
2022/10/08 00:11:39;;;;;;;8.75;6.57;;;;;;;15.85;75.91;99746.78;337200;29;1709;-69
2022/10/08 00:11:51;;;;;;;8.32;6.38;;;;;;;15.84;76.25;99750.34;338352;29;1835;-69
2022/10/08 00:12:03;;;;;;;8.30;6.60;;;;;;;15.84;76.06;99753.81;338029;29;1715;-69
2022/10/08 00:12:15;;;;;;;8.68;6.80;;;;;;;15.84;76.09;99752.97;338436;29;1583;-69
2022/10/08 00:12:27;;;;;;;9.00;6.75;;;;;;;15.84;76.05;99752.97;337292;29;1044;-69
2022/10/08 00:12:39;;;;;;;7.60;6.30;;;;;;;15.84;76.30;99751.19;337460;29;1891;-68
2022/10/08 00:12:51;;;;;;;8.73;6.55;;;;;;;15.82;76.01;99750.44;337989;29;1586;-69
2022/10/08 00:13:04;;;;;;;8.68;6.80;;;;;;;15.81;76.29;99748.72;339640;29;1196;-68
2022/10/08 00:13:16;;;;;;;9.93;6.97;;;;;;;15.78;76.37;99744.50;339767;29;964;-68
2022/10/08 00:13:39;;;;;;;10.02;6.90;;;;;;;15.79;76.36;99747.94;338501;29;1763;-69
2022/10/08 00:13:53;;;;;;;11.32;6.80;;;;;;;15.79;76.28;99753.19;339482;29;1852;-67
2022/10/08 00:14:05;;;;;;;10.30;6.72;;;;;;;15.81;76.50;99753.97;339687;29;1281;-67
2022/10/08 00:14:17;;;;;;;8.85;6.88;;;;;;;15.80;76.32;99743.56;339538;29;1182;-67
2022/10/08 00:14:29;;;;;;;8.73;6.65;;;;;;;15.82;76.38;99749.59;339567;29;1240;-67
2022/10/08 00:14:41;;;;;;;10.20;6.78;;;;;;;15.82;76.23;99750.44;339822;29;1304;-67
2022/10/08 00:14:53;;;;;;;11.90;6.82;;;;;;;15.83;76.10;99746.03;340636;29;1651;-67
2022/10/08 00:15:05;;;;;;;12.27;7.15;;;;;;;15.83;76.10;99748.63;340317;29;1141;-66
2022/10/08 00:15:17;;;;;;;10.32;7.13;;;;;;;15.84;76.23;99748.56;339552;29;1304;-66
2022/10/08 00:15:34;;;;;;;10.20;6.82;;;;;;;15.85;76.29;99747.63;339377;29;1445;-66
2022/10/08 00:15:46;;;;;;;13.23;6.93;;;;;;;15.88;76.19;99749.25;338960;29;1831;-68
2022/10/08 00:15:58;;;;;;;13.07;7.18;;;;;;;15.88;76.10;99746.63;339132;29;1725;-69
2022/10/08 00:16:20;;;;;;;9.10;7.03;;;;;;;15.86;76.24;99745.88;339470;29;1069;-69
2022/10/08 00:16:38;;;;;;;10.80;7.03;;;;;;;15.87;76.28;99748.38;338029;29;1812;-69
2022/10/08 00:16:50;;;;;;;11.30;6.97;;;;;;;15.86;76.33;99751.13;338926;29;1816;-69
2022/10/08 00:17:02;;;;;;;12.35;7.13;;;;;;;15.85;76.37;99750.25;339714;29;1128;-69
2022/10/08 00:17:14;;;;;;;11.00;7.18;;;;;;;15.85;76.41;99750.25;338121;29;1241;-69
2022/10/08 00:17:27;;;;;;;9.63;7.13;;;;;;;15.85;76.34;99755.50;339195;29;1671;-69
2022/10/08 00:17:38;;;;;;;8.80;6.85;;;;;;;15.86;76.37;99751.13;338327;29;1906;-69
2022/10/08 00:17:51;;;;;;;8.60;6.70;;;;;;;15.87;76.45;99747.56;338386;29;1235;-68
2022/10/08 00:18:03;;;;;;;10.90;7.07;;;;;;;15.86;76.21;99751.94;338461;29;1243;-68
2022/10/08 00:18:15;;;;;;;12.10;7.55;;;;;;;15.88;76.09;99755.34;338453;29;1097;-68
2022/10/08 00:18:28;;;;;;;12.45;7.68;;;;;;;15.89;76.10;99751.78;337127;29;1280;-68
2022/10/08 00:18:43;;;;;;;12.10;7.55;;;;;;;15.90;75.96;99747.41;337434;29;1870;-69
2022/10/08 00:19:00;;;;;;;11.98;7.55;;;;;;;15.91;75.87;99751.69;337812;29;1330;-69
2022/10/08 00:19:13;;;;;;;12.80;7.53;;;;;;;15.91;75.75;99747.28;339703;29;1067;-69
2022/10/08 00:19:25;;;;;;;12.45;7.30;;;;;;;15.93;75.89;99753.31;338906;29;1298;-69
2022/10/08 00:19:37;;;;;;;12.70;7.50;;;;;;;15.94;75.79;99752.41;337638;29;1564;-69
2022/10/08 00:19:49;;;;;;;11.95;7.32;;;;;;;15.95;75.94;99755.84;338931;29;1839;-69
2022/10/08 00:20:01;;;;;;;10.55;7.00;;;;;;;15.95;75.89;99751.44;340679;29;1068;-69
2022/10/08 00:20:13;;;;;;;8.90;6.90;;;;;;;15.93;75.74;99750.69;341029;29;1268;-69
2022/10/08 00:20:25;;;;;;;9.73;7.18;;;;;;;15.92;75.87;99749.00;340346;29;2014;-68
2022/10/08 00:20:37;;;;;;;13.30;7.50;;;;;;;15.91;75.78;99747.28;339506;28;1658;-69
2022/10/08 00:20:49;;;;;;;14.20;7.90;;;;;;;15.95;75.73;99753.22;340006;29;1661;-68
2022/10/08 00:21:08;;;;;;;13.30;7.75;;;;;;;15.93;75.83;99758.56;340910;29;1196;-68
2022/10/08 00:21:23;;;;;;;10.93;7.47;;;;;;;15.91;75.61;99755.16;340527;29;1211;-68
2022/10/08 00:21:37;;;;;;;11.23;7.68;;;;;;;15.93;75.32;99753.31;340178;28;1822;-68
2022/10/08 00:21:52;;;;;;;10.38;7.57;;;;;;;15.92;75.88;99756.88;339980;29;1665;-68
2022/10/08 00:22:04;;;;;;;9.50;7.53;;;;;;;15.92;75.93;99756.88;339809;29;1072;-68
2022/10/08 00:22:15;;;;;;;10.32;7.38;;;;;;;15.91;75.92;99747.28;338816;29;1804;-68
2022/10/08 00:22:28;;;;;;;10.50;7.25;;;;;;;15.92;75.86;99745.53;338534;29;2774;-68
2022/10/08 00:22:40;;;;;;;10.45;7.32;;;;;;;15.93;75.53;99750.69;338629;29;1655;-69
2022/10/08 00:22:52;;;;;;;9.43;7.32;;;;;;;15.94;76.07;99752.41;339627;29;1845;-69
2022/10/08 00:23:04;;;;;;;10.00;7.13;;;;;;;15.94;75.95;99749.78;338330;29;1031;-68
2022/10/08 00:23:15;;;;;;;10.23;7.10;;;;;;;15.92;75.96;99751.63;338406;29;1306;-68
2022/10/08 00:23:27;;;;;;;11.65;7.32;;;;;;;15.93;75.74;99755.09;338311;29;1126;-68
2022/10/08 00:23:40;;;;;;;11.55;7.40;;;;;;;15.90;75.62;99753.47;337282;29;1628;-69
2022/10/08 00:23:53;;;;;;;11.05;7.47;;;;;;;15.92;75.60;99748.16;338179;29;1020;-68
2022/10/08 00:24:07;;;;;;;12.07;7.22;;;;;;;15.91;75.92;99749.91;338367;29;1048;-68
2022/10/08 00:24:20;;;;;;;13.35;7.22;;;;;;;15.90;75.72;99750.88;337218;29;2120;-68
2022/10/08 00:24:32;;;;;;;13.02;7.68;;;;;;;15.90;75.90;99747.41;337968;29;1997;-68
2022/10/08 00:24:45;;;;;;;13.03;7.60;;;;;;;15.90;75.71;99748.25;338004;29;1744;-68
2022/10/08 00:24:57;;;;;;;13.13;7.68;;;;;;;15.90;75.99;99748.25;337919;29;1089;-68
2022/10/08 00:25:09;;;;;;;12.82;7.68;;;;;;;15.90;76.27;99744.78;338469;29;1547;-68
2022/10/08 00:25:21;;;;;;;13.07;7.73;;;;;;;15.89;76.30;99749.16;338240;29;1346;-68
2022/10/08 00:25:43;;;;;;;10.95;7.40;;;;;;;15.89;76.23;99751.78;337327;29;2199;-69
2022/10/08 00:25:54;;;;;;;10.70;7.30;;;;;;;15.89;75.90;99741.28;338519;29;1260;-69
2022/10/08 00:26:07;;;;;;;11.05;7.43;;;;;;;15.90;75.96;99743.00;338168;29;1657;-68
2022/10/08 00:26:23;;;;;;;10.85;7.38;;;;;;;15.89;75.73;99741.28;337763;29;1254;-68
2022/10/08 00:26:35;;;;;;;13.15;7.43;;;;;;;15.88;76.04;99747.47;337938;29;1919;-69
2022/10/08 00:26:54;;;;;;;12.88;7.47;;;;;;;15.85;76.17;99746.78;338602;29;1333;-69
2022/10/08 00:27:06;;;;;;;11.25;7.28;;;;;;;15.86;76.16;99741.47;338300;29;1024;-69
2022/10/08 00:27:24;;;;;;;10.73;7.22;;;;;;;15.86;75.97;99743.25;338288;29;1342;-69
2022/10/08 00:27:36;;;;;;;9.88;7.57;;;;;;;15.85;76.29;99745.00;336929;29;1877;-69
2022/10/08 00:27:50;;;;;;;10.05;7.68;;;;;;;15.87;76.39;99744.94;338213;29;1544;-69
2022/10/08 00:28:01;;;;;;;10.52;7.43;;;;;;;15.86;76.01;99738.00;338466;29;1064;-69
2022/10/08 00:28:13;;;;;;;11.60;7.05;;;;;;;15.87;76.25;99743.16;338644;29;1009;-69
2022/10/08 00:28:25;;;;;;;12.55;7.30;;;;;;;15.86;76.18;99741.47;338184;29;1321;-68
2022/10/08 00:28:41;;;;;;;13.05;7.53;;;;;;;15.86;76.21;99736.22;337252;29;1656;-68
2022/10/08 00:28:56;;;;;;;12.88;7.78;;;;;;;15.86;76.34;99745.88;338396;29;2069;-68
2022/10/08 00:29:12;;;;;;;15.15;7.82;;;;;;;15.84;76.53;99743.31;338545;29;1161;-68
2022/10/08 00:29:24;;;;;;;15.63;7.90;;;;;;;15.84;76.73;99738.09;338416;29;1390;-68
2022/10/08 00:29:35;;;;;;;13.95;7.72;;;;;;;15.85;76.50;99749.41;337747;29;1876;-69
2022/10/08 00:29:47;;;;;;;14.45;7.72;;;;;;;15.85;76.46;99745.00;337177;29;1742;-69
2022/10/08 00:29:59;;;;;;;13.90;7.80;;;;;;;15.85;76.55;99745.00;336783;29;1056;-69
2022/10/08 00:30:11;;;;;;;13.50;7.82;;;;;;;15.86;76.55;99736.22;337496;29;1012;-69
2022/10/08 00:30:23;;;;;;;14.23;7.85;;;;;;;15.87;76.49;99743.16;338453;29;1573;-68
2022/10/08 00:30:40;;;;;;;14.60;8.25;;;;;;;15.88;76.44;99744.00;337485;29;1710;-68
2022/10/08 00:30:52;;;;;;;12.75;8.32;;;;;;;15.89;76.34;99746.53;338388;29;1797;-67
2022/10/08 00:31:08;;;;;;;11.90;8.23;;;;;;;15.90;76.16;99747.41;338323;29;1055;-67
2022/10/08 00:31:23;;;;;;;13.52;8.18;;;;;;;15.90;76.16;99742.16;338483;29;1260;-67
2022/10/08 00:31:40;;;;;;;16.02;8.15;;;;;;;15.89;76.21;99746.53;338016;29;1524;-68
2022/10/08 00:31:52;;;;;;;14.57;8.32;;;;;;;15.88;76.03;99744.84;337775;29;1976;-67
2022/10/08 00:32:05;;;;;;;11.63;8.37;;;;;;;15.89;76.06;99740.44;338267;29;1151;-67
2022/10/08 00:32:18;;;;;;;10.57;8.32;;;;;;;15.90;76.16;99745.63;338161;29;1231;-68
2022/10/08 00:32:30;;;;;;;10.25;8.02;;;;;;;15.90;76.14;99743.00;338040;29;1949;-68
2022/10/08 00:32:43;;;;;;;10.35;7.93;;;;;;;15.92;76.10;99741.13;337617;29;1751;-69
2022/10/08 00:32:55;;;;;;;11.13;8.00;;;;;;;15.93;75.96;99742.81;338070;29;1114;-69
2022/10/08 00:33:11;;;;;;;11.70;7.85;;;;;;;15.94;76.00;99741.91;338574;29;1207;-68
2022/10/08 00:33:23;;;;;;;11.20;7.75;;;;;;;15.95;76.08;99746.19;338233;29;1312;-67
2022/10/08 00:33:35;;;;;;;12.38;7.93;;;;;;;15.97;75.92;99741.72;337950;29;2123;-67
2022/10/08 00:33:53;;;;;;;12.18;7.60;;;;;;;15.98;75.89;99745.22;338230;29;1566;-68
2022/10/08 00:34:12;;;;;;;11.13;7.53;;;;;;;15.98;75.63;99740.81;338288;29;1266;-68
2022/10/08 00:34:24;;;;;;;12.77;7.90;;;;;;;15.99;75.70;99741.66;338450;29;1439;-68
2022/10/08 00:34:37;;;;;;;12.48;7.78;;;;;;;16.00;75.74;99742.50;338053;29;1938;-68
2022/10/08 00:34:49;;;;;;;11.77;7.78;;;;;;;15.99;75.83;99744.28;340371;29;1752;-68
2022/10/08 00:35:01;;;;;;;11.13;7.68;;;;;;;15.98;75.64;99739.97;339679;29;1271;-68
2022/10/08 00:35:13;;;;;;;12.13;8.00;;;;;;;15.97;75.63;99744.34;339702;29;1028;-68
2022/10/08 00:35:25;;;;;;;12.68;8.00;;;;;;;15.97;75.79;99744.34;340699;29;1517;-68
2022/10/08 00:35:38;;;;;;;12.38;7.90;;;;;;;15.97;75.80;99749.59;339123;28;1492;-69
2022/10/08 00:35:50;;;;;;;13.82;7.80;;;;;;;15.96;76.01;99739.22;340222;29;1839;-68
2022/10/08 00:36:04;;;;;;;15.60;8.00;;;;;;;15.96;76.03;99747.06;339521;29;1617;-67
2022/10/08 00:36:16;;;;;;;15.10;8.10;;;;;;;15.94;75.95;99748.94;339931;29;1250;-67
2022/10/08 00:36:30;;;;;;;13.32;8.00;;;;;;;15.94;75.61;99749.78;340988;29;1100;-67
2022/10/08 00:36:42;;;;;;;13.88;8.05;;;;;;;15.95;75.68;99743.59;340203;29;1703;-68
2022/10/08 00:36:54;;;;;;;13.10;8.15;;;;;;;15.96;75.50;99742.66;339307;29;1979;-68
2022/10/08 00:37:06;;;;;;;12.90;8.15;;;;;;;15.97;75.47;99743.50;339501;29;1113;-68
2022/10/08 00:37:18;;;;;;;13.82;8.40;;;;;;;15.97;75.57;99744.34;339510;29;1331;-67
2022/10/08 00:37:30;;;;;;;13.48;8.23;;;;;;;15.98;75.36;99745.22;338786;29;2106;-66
2022/10/08 00:37:42;;;;;;;11.57;7.88;;;;;;;15.97;75.63;99744.34;338929;29;1960;-67
2022/10/08 00:37:54;;;;;;;11.13;7.70;;;;;;;15.95;75.70;99746.19;338688;29;1426;-66
2022/10/08 00:38:06;;;;;;;13.00;7.68;;;;;;;15.95;75.78;99748.00;338122;29;2265;-66
2022/10/08 00:38:18;;;;;;;13.30;7.88;;;;;;;15.93;75.63;99748.06;338267;29;1198;-67
2022/10/08 00:38:30;;;;;;;13.05;7.95;;;;;;;15.94;75.77;99743.69;338543;29;1228;-66
2022/10/08 00:38:42;;;;;;;11.95;8.02;;;;;;;15.94;75.73;99747.16;337780;29;1540;-67
2022/10/08 00:38:59;;;;;;;12.75;7.78;;;;;;;15.94;75.83;99747.16;338340;29;1824;-67
2022/10/08 00:39:14;;;;;;;12.57;7.90;;;;;;;15.93;75.80;99742.81;338612;29;1244;-67
2022/10/08 00:39:26;;;;;;;12.88;8.10;;;;;;;15.93;75.67;99741.97;338370;29;1427;-67
2022/10/08 00:39:38;;;;;;;14.57;8.30;;;;;;;15.91;75.99;99741.22;337914;29;1726;-66
2022/10/08 00:39:50;;;;;;;13.77;8.57;;;;;;;15.89;76.04;99746.53;337753;29;1790;-66
2022/10/08 00:40:03;;;;;;;14.05;8.80;;;;;;;15.88;76.07;99742.22;338412;29;1247;-67
2022/10/08 00:40:15;;;;;;;13.43;8.70;;;;;;;15.86;76.38;99744.09;338763;29;1108;-68
2022/10/08 00:40:27;;;;;;;13.60;8.75;;;;;;;15.86;76.54;99746.72;337491;29;1197;-67
2022/10/08 00:40:45;;;;;;;14.38;8.55;;;;;;;15.85;76.57;99742.38;337265;29;2075;-67
2022/10/08 00:40:58;;;;;;;13.48;8.38;;;;;;;15.87;76.33;99737.91;338640;29;1775;-67
2022/10/08 00:41:18;;;;;;;12.35;8.38;;;;;;;15.86;76.41;99751.94;338643;29;1072;-67
2022/10/08 00:41:33;;;;;;;13.55;8.77;;;;;;;15.88;76.27;99742.22;338667;29;1015;-67
2022/10/08 00:41:48;;;;;;;14.07;8.57;;;;;;;15.88;76.00;99742.22;338302;29;1476;-67
2022/10/08 00:42:01;;;;;;;13.90;8.38;;;;;;;15.89;76.00;99745.69;337539;29;988;-67
2022/10/08 00:42:13;;;;;;;12.98;8.35;;;;;;;15.89;75.90;99740.44;338187;29;1056;-68
2022/10/08 00:42:25;;;;;;;12.55;8.60;;;;;;;15.86;76.08;99746.72;338307;29;1484;-68
2022/10/08 00:42:37;;;;;;;12.57;8.55;;;;;;;15.85;76.21;99744.16;337386;29;1922;-68
2022/10/08 00:42:49;;;;;;;13.60;8.63;;;;;;;15.84;76.22;99743.31;338044;29;1417;-68
2022/10/08 00:43:01;;;;;;;13.00;8.60;;;;;;;15.83;76.19;99741.63;336970;29;1048;-68
2022/10/08 00:43:15;;;;;;;12.70;8.55;;;;;;;15.80;76.41;99740.97;338386;29;1234;-68
2022/10/08 00:43:38;;;;;;;13.07;8.35;;;;;;;15.81;76.66;99742.63;337274;29;1164;-68
2022/10/08 00:43:55;;;;;;;11.80;8.05;;;;;;;15.82;76.50;99739.94;338006;29;1439;-67
2022/10/08 00:44:41;;;;;;;10.63;7.97;;;;;;;15.80;76.48;99739.19;338325;29;1396;-67
2022/10/08 00:44:56;;;;;;;12.73;8.20;;;;;;;15.80;76.75;99741.78;338173;29;1839;-67
2022/10/08 00:45:12;;;;;;;11.85;8.15;;;;;;;15.79;76.49;99750.56;338347;29;1268;-67
2022/10/08 00:45:23;;;;;;;12.20;8.20;;;;;;;15.81;76.48;99746.09;337925;29;1977;-68
2022/10/08 00:45:37;;;;;;;12.82;8.10;;;;;;;15.83;76.26;99749.47;338322;29;1736;-67
2022/10/08 00:45:49;;;;;;;12.90;7.78;;;;;;;15.85;76.17;99746.78;338550;29;1596;-68
2022/10/08 00:46:03;;;;;;;11.13;7.60;;;;;;;15.86;76.03;99746.72;340846;29;2149;-67
2022/10/08 00:46:35;;;;;;;10.45;7.22;;;;;;;15.85;76.12;99747.63;340920;29;2008;-67
2022/10/08 00:46:48;;;;;;;13.00;7.75;;;;;;;15.85;75.98;99739.75;340739;29;1443;-67
2022/10/08 00:47:00;;;;;;;12.13;7.88;;;;;;;15.85;76.14;99747.63;340920;29;1200;-67
2022/10/08 00:47:18;;;;;;;12.43;7.78;;;;;;;15.85;75.91;99745.00;341369;29;730;-67
2022/10/08 00:47:37;;;;;;;11.15;7.70;;;;;;;15.83;76.11;99746.03;339737;29;1107;-68
2022/10/08 00:47:52;;;;;;;12.23;8.13;;;;;;;15.82;76.16;99745.19;340721;28;1472;-68
2022/10/08 00:48:04;;;;;;;13.65;8.20;;;;;;;15.82;76.28;99733.84;338254;29;1073;-68
2022/10/08 00:48:24;;;;;;;13.95;8.20;;;;;;;15.83;76.18;99746.03;337314;29;1367;-68
2022/10/08 00:48:36;;;;;;;12.20;8.07;;;;;;;15.83;76.27;99741.63;337742;29;1780;-68
2022/10/08 00:48:53;;;;;;;12.10;8.03;;;;;;;15.84;76.14;99740.72;337505;29;1555;-68
2022/10/08 00:49:10;;;;;;;12.03;8.30;;;;;;;15.85;75.87;99739.75;337881;29;1097;-68
2022/10/08 00:49:24;;;;;;;11.15;8.30;;;;;;;15.82;76.35;99739.94;338139;29;1263;-67
2022/10/08 00:49:37;;;;;;;11.27;8.10;;;;;;;15.81;76.39;99740.00;337447;29;1538;-67
2022/10/08 00:49:53;;;;;;;11.27;8.18;;;;;;;15.82;76.35;99739.09;337963;29;1433;-68
2022/10/08 00:50:08;;;;;;;11.63;7.68;;;;;;;15.83;76.30;99746.03;338180;29;1059;-67
2022/10/08 00:50:25;;;;;;;11.02;7.47;;;;;;;15.84;76.06;99745.09;337734;29;1818;-67
2022/10/08 00:50:38;;;;;;;10.30;7.57;;;;;;;15.85;75.91;99747.63;337756;29;2051;-67
2022/10/08 00:50:50;;;;;;;10.98;7.60;;;;;;;15.86;76.13;99749.34;340609;29;1633;-67
2022/10/08 00:51:03;;;;;;;10.85;7.47;;;;;;;15.85;75.85;99742.38;341002;29;1031;-68
2022/10/08 00:51:16;;;;;;;11.82;7.32;;;;;;;15.86;76.02;99746.72;340686;29;1224;-68
2022/10/08 00:51:30;;;;;;;11.30;7.50;;;;;;;15.85;75.97;99739.75;339545;29;1093;-67
2022/10/08 00:51:48;;;;;;;12.30;7.90;;;;;;;15.83;76.00;99736.38;340052;29;1841;-67
2022/10/08 00:52:00;;;;;;;12.82;8.05;;;;;;;15.83;76.08;99736.38;340957;29;1082;-65
2022/10/08 00:52:12;;;;;;;12.00;8.02;;;;;;;15.83;76.02;99741.63;339457;29;2095;-65
2022/10/08 00:52:29;;;;;;;13.50;8.10;;;;;;;15.84;76.21;99732.00;340671;29;1247;-65
2022/10/08 00:52:47;;;;;;;16.38;8.15;;;;;;;15.83;76.14;99739.00;339992;28;1833;-65
2022/10/08 00:53:06;;;;;;;15.38;8.20;;;;;;;15.82;76.52;99734.69;338513;29;1031;-65
2022/10/08 00:53:20;;;;;;;12.52;7.93;;;;;;;15.80;76.64;99731.31;338329;29;1190;-65
2022/10/08 00:53:33;;;;;;;10.68;7.82;;;;;;;15.82;76.43;99733.84;338087;29;1988;-65
2022/10/08 00:53:45;;;;;;;11.65;7.88;;;;;;;15.82;76.50;99741.72;337783;29;1446;-65
2022/10/08 00:54:00;;;;;;;12.02;7.70;;;;;;;15.83;76.14;99725.88;338232;29;1237;-65
2022/10/08 00:54:12;;;;;;;11.88;7.32;;;;;;;15.83;76.41;99735.53;338657;29;1019;-65
2022/10/08 00:54:24;;;;;;;10.38;7.47;;;;;;;15.83;76.27;99731.13;338094;29;1172;-65
2022/10/08 00:54:36;;;;;;;11.35;7.93;;;;;;;15.83;76.25;99735.53;337983;29;1797;-65
2022/10/08 00:54:50;;;;;;;12.25;8.00;;;;;;;15.84;76.15;99732.84;338312;29;1495;-65
2022/10/08 00:55:05;;;;;;;12.38;7.80;;;;;;;15.84;76.08;99727.59;338343;29;1047;-65
2022/10/08 00:55:20;;;;;;;11.57;7.43;;;;;;;15.84;76.10;99738.09;336924;29;1322;-65
2022/10/08 00:55:35;;;;;;;9.98;6.97;;;;;;;15.83;76.10;99731.13;338289;29;1356;-67
2022/10/08 00:55:53;;;;;;;10.55;7.40;;;;;;;15.85;76.06;99731.91;337712;29;1910;-67
2022/10/08 00:56:05;;;;;;;12.35;7.63;;;;;;;15.86;75.96;99728.38;338326;29;1350;-68
2022/10/08 00:56:20;;;;;;;12.30;7.40;;;;;;;15.89;76.12;99735.22;338025;29;1401;-67
2022/10/08 00:56:36;;;;;;;11.93;7.53;;;;;;;15.89;76.04;99730.81;337748;29;1591;-67
2022/10/08 00:56:51;;;;;;;11.73;7.60;;;;;;;15.90;76.07;99729.06;337436;29;1693;-67
2022/10/08 00:57:05;;;;;;;12.73;7.95;;;;;;;15.87;76.19;99731.81;337415;29;1040;-66
2022/10/08 00:57:20;;;;;;;14.20;7.88;;;;;;;15.87;75.89;99737.06;338856;29;1393;-66
2022/10/08 00:57:34;;;;;;;12.60;7.38;;;;;;;15.85;76.00;99728.44;338819;29;1966;-65
2022/10/08 00:57:46;;;;;;;11.52;7.35;;;;;;;15.85;76.12;99724.03;338906;29;1925;-65
2022/10/08 00:58:04;;;;;;;12.15;7.30;;;;;;;15.86;75.80;99730.16;339126;29;2103;-65
2022/10/08 00:58:21;;;;;;;11.98;8.10;;;;;;;15.86;75.95;99730.16;339848;29;1240;-65
2022/10/08 00:58:34;;;;;;;11.65;8.13;;;;;;;15.83;76.09;99718.03;338211;29;1953;-65
2022/10/08 00:58:48;;;;;;;12.40;7.68;;;;;;;15.83;75.84;99725.06;339204;29;1666;-65
2022/10/08 00:59:01;;;;;;;11.30;7.13;;;;;;;15.84;76.07;99719.75;339443;29;1026;-65
2022/10/08 00:59:13;;;;;;;10.18;6.90;;;;;;;15.82;75.97;99721.59;339409;29;1292;-64
2022/10/08 00:59:25;;;;;;;11.52;7.28;;;;;;;15.82;76.03;99723.38;338566;29;1583;-65
2022/10/08 00:59:37;;;;;;;11.70;7.55;;;;;;;15.83;75.90;99720.66;337824;29;1831;-65
2022/10/08 00:59:49;;;;;;;10.98;7.30;;;;;;;15.83;76.00;99718.03;337802;29;1472;-65
2022/10/08 01:00:05;;;;;;;10.35;7.22;;;;;;;15.85;75.89;99720.56;337791;29;1110;-65
2022/10/08 01:00:22;;;;;;;11.20;7.20;;;;;;;15.84;75.87;99724.97;338248;29;1515;-65
2022/10/08 01:00:34;;;;;;;10.15;7.10;;;;;;;15.85;75.73;99718.78;338024;29;1818;-64
2022/10/08 01:00:47;;;;;;;10.02;7.07;;;;;;;15.84;76.04;99724.97;337265;29;1703;-65
2022/10/08 01:01:00;;;;;;;9.52;6.90;;;;;;;15.85;75.96;99723.19;337862;29;1570;-65
2022/10/08 01:01:12;;;;;;;9.57;6.80;;;;;;;15.83;75.79;99720.66;338381;29;1097;-65
2022/10/08 01:01:24;;;;;;;9.45;6.70;;;;;;;15.81;75.93;99722.50;338222;29;1340;-65
2022/10/08 01:01:39;;;;;;;10.27;6.75;;;;;;;15.80;76.10;99720.81;337585;29;1791;-65
2022/10/08 01:01:52;;;;;;;9.95;6.80;;;;;;;15.81;75.96;99717.25;337577;29;1916;-65
2022/10/08 01:02:07;;;;;;;8.68;6.65;;;;;;;15.81;75.84;99722.50;338547;29;1091;-66
2022/10/08 01:02:19;;;;;;;8.73;6.97;;;;;;;15.78;75.65;99717.44;338470;29;1273;-65
2022/10/08 01:02:31;;;;;;;9.82;7.10;;;;;;;15.77;75.66;99713.13;338468;29;1184;-65
2022/10/08 01:02:44;;;;;;;10.20;7.20;;;;;;;15.76;75.51;99724.53;337875;29;1678;-65
2022/10/08 01:02:56;;;;;;;10.02;7.30;;;;;;;15.76;75.76;99720.13;338654;29;1265;-65
2022/10/08 01:03:09;;;;;;;9.13;6.75;;;;;;;15.77;75.53;99719.22;338811;29;1128;-65
2022/10/08 01:03:21;;;;;;;9.32;6.30;;;;;;;15.78;75.68;99718.28;337787;29;1836;-65
2022/10/08 01:03:32;;;;;;;9.75;6.40;;;;;;;15.81;75.67;99717.25;338131;29;1867;-65
2022/10/08 01:03:44;;;;;;;12.13;7.15;;;;;;;15.81;75.53;99719.88;338430;29;1008;-65
2022/10/08 01:04:05;;;;;;;12.07;7.22;;;;;;;15.80;75.58;99720.00;338609;29;1813;-65
2022/10/08 01:04:17;;;;;;;11.57;6.90;;;;;;;15.81;75.49;99724.28;337464;29;1307;-65
2022/10/08 01:04:29;;;;;;;11.23;6.90;;;;;;;15.82;75.41;99723.38;338582;29;1091;-67
2022/10/08 01:04:42;;;;;;;10.65;7.00;;;;;;;15.83;75.51;99718.03;337762;29;2064;-67
2022/10/08 01:04:55;;;;;;;9.35;6.68;;;;;;;15.82;75.63;99716.34;338452;29;1807;-67
2022/10/08 01:05:08;;;;;;;8.00;6.10;;;;;;;15.83;75.45;99720.66;338497;29;1020;-66
2022/10/08 01:05:50;;;;;;;8.80;5.95;;;;;;;15.83;75.29;99720.66;340921;29;1205;-66
2022/10/08 01:06:14;;;;;;;12.37;6.83;;;;;;;15.81;75.30;99716.41;332646;29;1256;-66